Time;durP1;ratioP1;P1;durP2;ratioP2;P2;SDS_P1;SDS_P2;PMS_P1;PMS_P2;Temp;Humidity;BMP_temperature;BMP_pressure;BME280_temperature;BME280_humidity;BME280_pressure;Samples;Min_cycle;Max_cycle;Signal;HPM_P1;HPM_P2
2023/06/24 00:01:14;;;;;;;1.30;1.30;;;24.00;65.10;;;;;;5002760;28;20050;-76
2023/06/24 00:03:40;;;;;;;1.10;1.10;;;24.00;65.10;;;;;;5003020;28;20056;-76
2023/06/24 00:06:05;;;;;;;3.38;1.20;;;24.00;65.20;;;;;;4999660;28;20578;-76
2023/06/24 00:08:36;;;;;;;0.98;0.98;;;24.00;65.30;;;;;;5000456;28;20048;-76
2023/06/24 00:11:02;;;;;;;1.50;1.40;;;24.00;65.30;;;;;;5000788;28;20037;-76
2023/06/24 00:13:31;;;;;;;1.20;1.20;;;24.00;65.30;;;;;;5015656;28;20088;-77
2023/06/24 00:15:56;;;;;;;1.13;1.13;;;23.90;65.30;;;;;;4985960;28;20081;-77
2023/06/24 00:18:24;;;;;;;1.17;1.17;;;24.00;65.80;;;;;;5003982;28;20523;-76
2023/06/24 00:20:50;;;;;;;1.15;1.13;;;24.00;65.70;;;;;;5003392;28;20042;-77
2023/06/24 00:23:17;;;;;;;1.40;1.30;;;23.90;65.90;;;;;;4999613;28;20046;-77
2023/06/24 00:25:42;;;;;;;2.15;1.20;;;23.90;65.90;;;;;;5000482;28;20084;-76
2023/06/24 00:28:08;;;;;;;1.00;1.00;;;23.90;66.10;;;;;;4997881;28;20144;-76
2023/06/24 00:30:33;;;;;;;1.10;1.10;;;23.90;66.20;;;;;;5000866;28;20518;-76
2023/06/24 00:32:59;;;;;;;1.05;1.05;;;23.90;66.40;;;;;;5003965;28;20061;-76
2023/06/24 00:35:24;;;;;;;1.10;1.10;;;23.90;66.20;;;;;;5001069;28;20050;-77
2023/06/24 00:37:50;;;;;;;1.00;1.00;;;23.90;66.20;;;;;;5005996;28;20414;-76
2023/06/24 00:40:16;;;;;;;1.00;1.00;;;23.80;66.40;;;;;;5000633;28;20049;-76
2023/06/24 00:42:44;;;;;;;1.58;1.48;;;23.80;66.50;;;;;;4986942;28;20054;-76
2023/06/24 00:45:10;;;;;;;1.13;1.13;;;23.90;66.60;;;;;;4990594;28;20451;-76
2023/06/24 00:47:35;;;;;;;1.00;1.00;;;23.90;66.60;;;;;;5016958;28;20046;-76
2023/06/24 00:50:01;;;;;;;1.00;1.00;;;23.90;66.60;;;;;;5005815;28;20034;-76
2023/06/24 00:52:27;;;;;;;1.17;1.17;;;23.90;66.20;;;;;;5003212;28;20049;-77
2023/06/24 00:54:52;;;;;;;1.17;1.17;;;23.90;66.30;;;;;;5022190;28;20144;-76
2023/06/24 00:57:18;;;;;;;1.20;1.08;;;23.90;66.50;;;;;;5005777;28;20046;-76
2023/06/24 00:59:44;;;;;;;1.15;1.15;;;23.90;66.50;;;;;;4989326;28;20038;-76
2023/06/24 01:02:10;;;;;;;1.00;1.00;;;23.90;66.70;;;;;;5003190;28;20056;-76
2023/06/24 01:04:36;;;;;;;1.27;1.00;;;23.90;66.50;;;;;;5005971;28;20074;-76
2023/06/24 01:07:01;;;;;;;1.00;1.00;;;23.90;66.60;;;;;;5004465;28;20103;-76
2023/06/24 01:09:27;;;;;;;0.93;0.93;;;23.90;66.70;;;;;;5009180;28;20042;-76
2023/06/24 01:11:53;;;;;;;1.00;1.00;;;23.90;66.50;;;;;;5007871;28;20065;-76
2023/06/24 01:14:20;;;;;;;0.98;0.98;;;23.80;66.70;;;;;;5007471;28;20046;-76
2023/06/24 01:17:08;;;;;;;1.23;1.23;;;23.80;66.60;;;;;;5005537;28;20294;-77
2023/06/24 01:19:53;;;;;;;1.13;1.13;;;23.80;66.40;;;;;;5001938;28;20045;-76
2023/06/24 01:22:40;;;;;;;1.05;0.88;;;23.80;66.40;;;;;;5005048;28;20085;-77
2023/06/24 01:26:04;;;;;;;1.10;1.10;;;23.80;66.30;;;;;;5018972;28;20050;-76
2023/06/24 01:28:56;;;;;;;1.00;1.00;;;23.80;66.30;;;;;;4975308;28;20537;-76
2023/06/24 01:31:34;;;;;;;1.20;1.20;;;23.80;66.20;;;;;;4994442;28;20049;-76
2023/06/24 01:34:21;;;;;;;1.00;1.00;;;23.80;66.10;;;;;;4979059;28;20173;-76
2023/06/24 01:37:22;;;;;;;1.00;1.00;;;23.80;66.00;;;;;;4980259;28;20136;-76
2023/06/24 01:39:50;;;;;;;1.00;1.00;;;23.80;66.40;;;;;;4964248;28;20034;-76
2023/06/24 01:42:16;;;;;;;1.17;1.17;;;23.80;66.30;;;;;;4961753;28;20587;-76
2023/06/24 01:44:43;;;;;;;1.30;1.30;;;23.80;66.40;;;;;;4980583;28;20069;-76
2023/06/24 01:47:08;;;;;;;1.15;1.15;;;23.80;66.30;;;;;;4963348;28;20076;-76
2023/06/24 01:49:34;;;;;;;1.10;1.10;;;23.80;66.30;;;;;;4965253;28;20038;-76
2023/06/24 01:52:02;;;;;;;1.20;1.20;;;23.80;66.30;;;;;;4962654;28;20050;-76
2023/06/24 01:54:28;;;;;;;1.13;1.10;;;23.80;66.30;;;;;;4963291;28;20141;-76
2023/06/24 01:56:54;;;;;;;1.15;1.15;;;23.80;66.50;;;;;;4976631;28;20504;-77
2023/06/24 01:59:20;;;;;;;0.95;0.95;;;23.80;66.40;;;;;;4994066;28;20045;-76
2023/06/24 02:01:45;;;;;;;1.30;1.30;;;23.80;66.50;;;;;;5019533;28;20459;-76
2023/06/24 02:04:11;;;;;;;1.35;1.35;;;23.80;66.40;;;;;;5005702;28;20039;-76
2023/06/24 02:06:37;;;;;;;1.00;1.00;;;23.80;66.30;;;;;;5006192;28;20038;-76
2023/06/24 02:09:03;;;;;;;1.50;1.42;;;23.80;66.30;;;;;;5017386;28;20522;-76
2023/06/24 02:11:30;;;;;;;1.30;1.30;;;23.80;66.10;;;;;;5002791;28;20575;-76
2023/06/24 02:13:55;;;;;;;1.40;1.30;;;23.80;66.10;;;;;;5005025;28;20046;-76
2023/06/24 02:16:21;;;;;;;1.40;1.30;;;23.80;66.10;;;;;;5006053;28;20048;-76
2023/06/24 02:18:48;;;;;;;1.10;1.10;;;23.80;66.10;;;;;;5004955;28;20085;-76
2023/06/24 02:21:14;;;;;;;1.50;1.40;;;23.80;66.10;;;;;;4990235;28;20475;-77
2023/06/24 02:23:39;;;;;;;0.80;0.80;;;23.80;66.00;;;;;;5005311;28;20068;-76
2023/06/24 02:26:06;;;;;;;1.20;1.20;;;23.90;66.00;;;;;;5002656;28;20049;-76
2023/06/24 02:28:32;;;;;;;1.02;1.02;;;23.80;66.00;;;;;;5003426;28;20050;-76
2023/06/24 02:30:58;;;;;;;1.05;1.05;;;23.80;66.00;;;;;;4987011;28;20088;-76
2023/06/24 02:33:23;;;;;;;1.10;1.10;;;23.80;66.00;;;;;;5006615;28;20104;-76
2023/06/24 02:35:49;;;;;;;1.10;1.10;;;23.80;65.90;;;;;;5019425;28;20500;-76
2023/06/24 02:38:15;;;;;;;0.93;0.93;;;23.80;66.00;;;;;;4986436;28;20042;-76
2023/06/24 02:40:42;;;;;;;1.10;1.10;;;23.80;65.90;;;;;;4988704;28;20042;-76
2023/06/24 02:43:08;;;;;;;1.15;1.15;;;23.80;66.10;;;;;;5002043;28;20046;-76
2023/06/24 02:45:33;;;;;;;1.13;1.13;;;23.80;66.00;;;;;;5005690;28;20030;-77
2023/06/24 02:47:59;;;;;;;1.00;1.00;;;23.80;66.00;;;;;;4990562;28;20100;-76
2023/06/24 02:50:25;;;;;;;1.20;1.10;;;23.80;66.00;;;;;;5000419;28;20034;-76
2023/06/24 02:52:51;;;;;;;2.05;1.30;;;23.80;66.10;;;;;;5002799;28;20100;-77
2023/06/24 02:55:16;;;;;;;1.10;1.10;;;23.80;66.20;;;;;;5003294;28;20026;-76
2023/06/24 02:57:42;;;;;;;0.80;0.80;;;23.80;66.10;;;;;;5003230;28;20053;-76
2023/06/24 03:00:14;;;;;;;0.90;0.90;;;23.80;66.90;;;;;;5006453;28;20057;-76
2023/06/24 03:02:42;;;;;;;0.93;0.93;;;23.80;66.10;;;;;;5003607;28;20046;-77
2023/06/24 03:05:08;;;;;;;0.85;0.85;;;23.80;66.10;;;;;;5001454;28;20029;-76
2023/06/24 03:07:36;;;;;;;0.90;0.90;;;23.80;66.00;;;;;;5002981;28;20045;-76
2023/06/24 03:10:02;;;;;;;0.80;0.80;;;23.80;66.00;;;;;;5003922;28;20027;-76
2023/06/24 03:12:28;;;;;;;0.77;0.77;;;23.80;66.00;;;;;;4988351;28;20053;-76
2023/06/24 03:14:54;;;;;;;0.80;0.80;;;23.70;66.00;;;;;;5001757;28;20032;-76
2023/06/24 03:17:20;;;;;;;0.77;0.77;;;23.70;66.00;;;;;;5016285;28;20508;-76
2023/06/24 03:19:45;;;;;;;0.88;0.88;;;23.70;66.10;;;;;;4986409;28;20041;-76
2023/06/24 03:22:11;;;;;;;1.00;1.00;;;23.70;66.00;;;;;;5002733;28;20050;-76
2023/06/24 03:24:37;;;;;;;0.80;0.80;;;23.80;66.20;;;;;;5017877;28;20041;-76
2023/06/24 03:27:03;;;;;;;0.93;0.93;;;23.70;66.10;;;;;;5005272;28;20061;-77
2023/06/24 03:29:28;;;;;;;0.82;0.82;;;23.70;66.10;;;;;;4987182;28;20050;-76
2023/06/24 03:31:54;;;;;;;0.85;0.85;;;23.70;66.30;;;;;;4984023;28;20041;-76
2023/06/24 03:34:19;;;;;;;0.80;0.80;;;23.70;66.30;;;;;;5000386;28;20393;-77
2023/06/24 03:36:45;;;;;;;0.90;0.90;;;23.70;66.40;;;;;;5001570;28;20072;-77
2023/06/24 03:39:11;;;;;;;0.60;0.60;;;23.70;66.40;;;;;;4988791;28;20045;-76
2023/06/24 03:41:36;;;;;;;0.70;0.70;;;23.70;66.40;;;;;;5003960;28;20473;-77
2023/06/24 03:44:02;;;;;;;0.90;0.90;;;23.70;66.30;;;;;;5005420;28;20064;-76
2023/06/24 03:46:32;;;;;;;0.80;0.80;;;23.70;66.40;;;;;;4984107;28;20045;-77
2023/06/24 03:48:58;;;;;;;0.70;0.70;;;23.70;66.40;;;;;;5002443;28;20046;-76
2023/06/24 03:51:23;;;;;;;0.80;0.80;;;23.70;66.40;;;;;;5003223;28;20060;-76
2023/06/24 03:53:50;;;;;;;1.00;1.00;;;23.70;66.40;;;;;;5004506;28;20046;-76
2023/06/24 03:56:15;;;;;;;1.00;1.00;;;23.70;66.50;;;;;;4984996;28;20037;-76
2023/06/24 03:58:41;;;;;;;0.90;0.90;;;23.70;66.50;;;;;;5002036;28;20045;-76
2023/06/24 04:01:06;;;;;;;0.82;0.70;;;23.70;66.40;;;;;;5003417;28;20083;-77
2023/06/24 04:03:32;;;;;;;0.98;0.98;;;23.70;66.30;;;;;;5003584;28;20120;-76
2023/06/24 04:05:57;;;;;;;0.85;0.85;;;23.70;66.50;;;;;;4991010;28;20041;-76
2023/06/24 04:08:25;;;;;;;0.73;0.73;;;23.70;66.40;;;;;;5000327;28;20125;-76
2023/06/24 04:10:51;;;;;;;1.05;1.05;;;23.70;66.70;;;;;;5011468;28;20080;-76
2023/06/24 04:13:16;;;;;;;0.75;0.75;;;23.70;66.60;;;;;;5004092;28;20074;-77
2023/06/24 04:15:42;;;;;;;0.85;0.85;;;23.70;66.50;;;;;;5002137;28;20042;-76
2023/06/24 04:18:08;;;;;;;0.77;0.77;;;23.70;66.90;;;;;;5001943;28;20388;-76
2023/06/24 04:20:34;;;;;;;1.00;1.00;;;23.70;66.50;;;;;;4988628;28;20046;-76
2023/06/24 04:23:00;;;;;;;0.90;0.90;;;23.70;66.70;;;;;;5001498;28;20038;-76
2023/06/24 04:25:26;;;;;;;0.80;0.80;;;23.70;66.70;;;;;;4998599;28;20057;-76
2023/06/24 04:27:51;;;;;;;1.15;1.05;;;23.70;66.60;;;;;;5001821;28;20042;-76
2023/06/24 04:30:17;;;;;;;1.67;1.20;;;23.70;66.70;;;;;;5007191;28;20045;-76
2023/06/24 04:32:43;;;;;;;1.13;1.13;;;23.70;66.70;;;;;;4986749;28;20542;-76
2023/06/24 04:35:09;;;;;;;0.68;0.68;;;23.70;66.80;;;;;;5002245;28;20064;-76
2023/06/24 04:37:34;;;;;;;0.90;0.90;;;23.60;66.70;;;;;;4998696;28;20512;-76
2023/06/24 04:40:00;;;;;;;0.70;0.70;;;23.70;66.70;;;;;;5001166;28;20095;-76
2023/06/24 04:42:25;;;;;;;0.70;0.70;;;23.60;66.70;;;;;;5004740;28;20049;-76
2023/06/24 04:44:51;;;;;;;0.85;0.85;;;23.60;66.60;;;;;;5004184;28;20045;-76
2023/06/24 04:47:17;;;;;;;0.70;0.70;;;23.60;66.70;;;;;;5014446;28;20046;-76
2023/06/24 04:49:43;;;;;;;0.70;0.70;;;23.70;66.70;;;;;;4998343;28;20036;-76
2023/06/24 04:52:09;;;;;;;1.20;1.20;;;23.60;66.50;;;;;;5001781;28;20125;-76
2023/06/24 04:54:34;;;;;;;0.80;0.80;;;23.60;66.70;;;;;;4983041;28;20056;-76
2023/06/24 04:57:00;;;;;;;0.90;0.90;;;23.60;66.60;;;;;;4985760;28;20045;-76
2023/06/24 04:59:25;;;;;;;0.63;0.63;;;23.70;66.70;;;;;;4984257;28;20045;-76
2023/06/24 05:01:51;;;;;;;1.10;1.10;;;23.70;66.80;;;;;;4999810;28;20113;-76
2023/06/24 05:04:17;;;;;;;0.68;0.68;;;23.70;66.70;;;;;;4996988;28;20060;-76
2023/06/24 05:06:42;;;;;;;0.70;0.70;;;23.60;66.80;;;;;;5002844;28;20033;-76
2023/06/24 05:09:10;;;;;;;0.75;0.75;;;23.60;66.60;;;;;;5004639;28;20036;-76
2023/06/24 05:11:35;;;;;;;0.88;0.88;;;23.70;67.50;;;;;;5004115;28;20516;-76
2023/06/24 05:14:01;;;;;;;0.82;0.82;;;23.70;66.60;;;;;;4999613;28;20049;-76
2023/06/24 05:16:26;;;;;;;0.70;0.70;;;23.70;67.00;;;;;;5004754;28;20041;-76
2023/06/24 05:18:52;;;;;;;0.73;0.73;;;23.60;66.60;;;;;;5000206;28;20034;-76
2023/06/24 05:21:18;;;;;;;0.85;0.85;;;23.70;66.90;;;;;;5005134;28;20049;-76
2023/06/24 05:23:43;;;;;;;0.75;0.75;;;23.60;66.50;;;;;;5003678;28;20034;-76
2023/06/24 05:26:09;;;;;;;0.80;0.80;;;23.60;66.50;;;;;;4983749;28;20050;-75
2023/06/24 05:28:34;;;;;;;0.65;0.65;;;23.60;66.60;;;;;;5014143;28;20117;-76
2023/06/24 05:31:00;;;;;;;0.65;0.65;;;23.60;66.60;;;;;;5000117;28;20047;-76
2023/06/24 05:33:25;;;;;;;0.77;0.77;;;23.60;66.60;;;;;;5017169;28;20046;-76
2023/06/24 05:35:51;;;;;;;0.90;0.90;;;23.60;66.70;;;;;;5020889;28;20041;-76
2023/06/24 05:38:17;;;;;;;0.90;0.90;;;23.60;66.60;;;;;;4990674;28;20041;-76
2023/06/24 05:40:42;;;;;;;0.80;0.80;;;23.60;66.60;;;;;;5006523;28;20109;-76
2023/06/24 05:43:08;;;;;;;0.80;0.80;;;23.60;66.60;;;;;;5007573;28;20030;-76
2023/06/24 05:45:33;;;;;;;0.90;0.90;;;23.60;66.60;;;;;;5019112;28;20034;-76
2023/06/24 05:47:59;;;;;;;0.70;0.70;;;23.60;66.60;;;;;;5006879;28;20113;-76
2023/06/24 05:50:24;;;;;;;0.85;0.85;;;23.60;66.60;;;;;;5003338;28;20053;-76
2023/06/24 05:52:50;;;;;;;0.85;0.85;;;23.60;66.60;;;;;;5007013;28;20042;-76
2023/06/24 05:55:15;;;;;;;0.80;0.80;;;23.60;66.70;;;;;;5007169;28;20476;-76
2023/06/24 05:57:41;;;;;;;0.90;0.90;;;23.60;66.60;;;;;;5005842;28;20065;-76
2023/06/24 06:00:07;;;;;;;0.75;0.75;;;23.60;66.70;;;;;;5004430;28;20048;-76
2023/06/24 06:02:32;;;;;;;0.82;0.82;;;23.60;66.60;;;;;;5002365;28;20049;-76
2023/06/24 06:04:58;;;;;;;0.80;0.80;;;23.60;67.50;;;;;;5006160;28;20046;-76
2023/06/24 06:07:24;;;;;;;0.95;0.95;;;23.60;66.60;;;;;;5004626;28;20121;-75
2023/06/24 06:09:50;;;;;;;0.70;0.70;;;23.60;66.70;;;;;;5003852;28;20026;-76
2023/06/24 06:12:15;;;;;;;0.98;0.98;;;23.60;66.70;;;;;;5005877;28;20051;-76
2023/06/24 06:14:41;;;;;;;0.90;0.90;;;23.60;66.70;;;;;;5005850;28;20042;-76
2023/06/24 06:17:06;;;;;;;0.70;0.70;;;23.60;66.70;;;;;;4999264;28;20462;-76
2023/06/24 06:19:32;;;;;;;0.80;0.80;;;23.60;66.70;;;;;;5001447;28;20061;-76
2023/06/24 06:21:57;;;;;;;0.90;0.90;;;23.60;66.70;;;;;;5017859;28;20034;-76
2023/06/24 06:24:23;;;;;;;0.70;0.70;;;23.60;66.70;;;;;;5006826;28;20129;-76
2023/06/24 06:26:48;;;;;;;0.70;0.70;;;23.60;66.70;;;;;;5002161;28;20103;-76
2023/06/24 06:29:14;;;;;;;0.80;0.80;;;23.60;66.70;;;;;;5001594;28;20030;-76
2023/06/24 06:31:40;;;;;;;0.80;0.80;;;23.60;66.70;;;;;;5016528;28;20072;-75
2023/06/24 06:34:05;;;;;;;0.80;0.80;;;23.60;66.70;;;;;;5002555;28;20524;-75
2023/06/24 06:36:31;;;;;;;0.90;0.90;;;23.60;66.70;;;;;;5004412;28;20399;-75
2023/06/24 06:38:56;;;;;;;0.95;0.95;;;23.60;66.80;;;;;;5004623;28;20041;-76
2023/06/24 06:41:24;;;;;;;0.90;0.90;;;23.60;66.70;;;;;;5004768;28;20033;-76
2023/06/24 06:43:51;;;;;;;0.80;0.80;;;23.60;66.70;;;;;;5003893;28;20104;-76
2023/06/24 06:46:16;;;;;;;0.90;0.90;;;23.60;66.70;;;;;;5020956;28;20077;-76
2023/06/24 06:48:42;;;;;;;0.70;0.70;;;23.60;66.80;;;;;;5005870;28;20077;-75
2023/06/24 06:51:07;;;;;;;0.68;0.68;;;23.60;66.80;;;;;;5020761;28;20029;-76
2023/06/24 06:53:33;;;;;;;0.80;0.80;;;23.60;66.70;;;;;;5002275;28;20054;-76
2023/06/24 06:55:59;;;;;;;0.80;0.80;;;23.60;67.60;;;;;;5002779;28;20038;-76
2023/06/24 06:58:24;;;;;;;0.82;0.82;;;23.60;66.80;;;;;;5004606;28;20194;-76
2023/06/24 07:00:50;;;;;;;0.90;0.90;;;23.60;66.80;;;;;;5002588;28;20038;-76
2023/06/24 07:03:15;;;;;;;0.73;0.73;;;23.60;66.70;;;;;;5004817;28;20048;-76
2023/06/24 07:05:41;;;;;;;1.00;1.00;;;23.60;66.70;;;;;;4983869;28;20065;-76
2023/06/24 07:08:07;;;;;;;0.77;0.77;;;23.60;66.70;;;;;;5018140;28;20061;-76
2023/06/24 07:10:32;;;;;;;0.90;0.90;;;23.60;66.70;;;;;;5002924;28;20049;-76
2023/06/24 07:12:58;;;;;;;1.00;1.00;;;23.60;66.70;;;;;;5018001;28;20045;-76
2023/06/24 07:15:27;;;;;;;0.85;0.85;;;23.70;66.80;;;;;;5004254;28;20042;-76
2023/06/24 07:17:53;;;;;;;0.90;0.90;;;23.70;66.80;;;;;;5004159;28;20093;-76
2023/06/24 07:20:19;;;;;;;0.90;0.90;;;23.70;66.90;;;;;;4997255;28;20547;-76
2023/06/24 07:22:44;;;;;;;0.90;0.90;;;23.70;66.80;;;;;;5004161;28;20100;-76
2023/06/24 07:25:11;;;;;;;0.80;0.80;;;23.70;66.80;;;;;;5016561;28;20475;-76
2023/06/24 07:27:37;;;;;;;0.70;0.70;;;23.70;66.80;;;;;;5003311;28;20182;-76
2023/06/24 07:30:03;;;;;;;0.77;0.77;;;23.70;66.90;;;;;;5002176;28;20160;-76
2023/06/24 07:32:29;;;;;;;0.90;0.90;;;23.70;66.90;;;;;;5001546;28;20046;-76
2023/06/24 07:34:54;;;;;;;0.90;0.90;;;23.70;67.10;;;;;;5000593;28;20084;-76
2023/06/24 07:37:20;;;;;;;0.75;0.75;;;23.70;67.30;;;;;;5000486;28;20056;-76
2023/06/24 07:39:46;;;;;;;0.70;0.70;;;23.70;67.20;;;;;;4998567;28;20069;-75
2023/06/24 07:42:11;;;;;;;0.98;0.98;;;23.70;67.20;;;;;;4997373;28;20582;-76
2023/06/24 07:44:39;;;;;;;0.90;0.90;;;23.70;67.50;;;;;;5004347;28;20045;-75
2023/06/24 07:47:06;;;;;;;0.80;0.80;;;23.70;67.40;;;;;;5000789;28;20100;-76
2023/06/24 07:49:31;;;;;;;1.05;1.05;;;23.70;67.30;;;;;;4984405;28;20120;-76
2023/06/24 07:51:57;;;;;;;1.30;1.30;;;23.70;67.30;;;;;;5002410;28;20117;-76
2023/06/24 07:54:22;;;;;;;0.90;0.90;;;23.70;67.20;;;;;;4635136;28;10000386;-75
2023/06/24 07:56:48;;;;;;;0.70;0.70;;;23.70;67.10;;;;;;4995010;28;20053;-76
2023/06/24 07:59:13;;;;;;;0.90;0.90;;;23.70;67.30;;;;;;4996513;28;20140;-75
2023/06/24 08:01:39;;;;;;;0.90;0.90;;;23.80;66.60;;;;;;5003713;28;20049;-75
2023/06/24 08:04:04;;;;;;;1.00;1.00;;;23.80;66.70;;;;;;4999059;28;20053;-75
2023/06/24 08:06:30;;;;;;;0.90;0.90;;;23.80;67.30;;;;;;5000215;28;20061;-76
2023/06/24 08:08:56;;;;;;;0.90;0.90;;;23.80;67.40;;;;;;4999604;28;20034;-75
2023/06/24 08:11:21;;;;;;;1.00;1.00;;;23.80;67.60;;;;;;4653193;28;10000500;-75
2023/06/24 08:13:47;;;;;;;1.00;1.00;;;23.80;67.40;;;;;;4996595;28;20061;-75
2023/06/24 08:16:16;;;;;;;1.10;1.10;;;23.90;67.40;;;;;;5003421;28;20066;-76
2023/06/24 08:18:41;;;;;;;1.00;1.00;;;23.80;67.30;;;;;;5001834;28;20530;-76
2023/06/24 08:21:07;;;;;;;1.58;0.90;;;23.90;67.40;;;;;;5004890;28;20038;-76
2023/06/24 08:23:32;;;;;;;0.85;0.85;;;23.90;67.30;;;;;;5014225;28;20046;-76
2023/06/24 08:25:58;;;;;;;2.00;0.90;;;23.90;67.40;;;;;;4997927;28;20095;-76
2023/06/24 08:28:23;;;;;;;1.10;1.10;;;23.90;67.40;;;;;;5003661;28;20511;-76
2023/06/24 08:30:49;;;;;;;1.00;1.00;;;23.90;67.40;;;;;;5002280;28;20101;-76
2023/06/24 08:33:14;;;;;;;0.93;0.93;;;23.90;67.50;;;;;;5003001;28;20045;-76
2023/06/24 08:35:40;;;;;;;1.08;0.90;;;23.90;67.40;;;;;;5016883;28;20050;-76
2023/06/24 08:38:05;;;;;;;1.35;1.30;;;23.90;67.40;;;;;;5000317;28;20388;-75
2023/06/24 08:40:31;;;;;;;1.48;1.10;;;23.90;67.40;;;;;;5002280;28;20168;-76
2023/06/24 08:42:58;;;;;;;0.88;0.88;;;24.00;67.40;;;;;;5015816;28;20042;-76
2023/06/24 08:45:23;;;;;;;1.05;1.05;;;23.90;67.40;;;;;;5019752;28;20084;-76
2023/06/24 08:47:49;;;;;;;1.48;1.05;;;24.00;68.20;;;;;;5003343;28;20053;-76
2023/06/24 08:50:15;;;;;;;0.93;0.93;;;24.00;67.40;;;;;;5003901;28;20034;-76
2023/06/24 08:52:43;;;;;;;1.10;1.10;;;24.00;67.40;;;;;;4999972;28;20061;-76
2023/06/24 08:55:10;;;;;;;1.10;1.00;;;23.90;67.30;;;;;;4984741;28;20046;-76
2023/06/24 08:57:36;;;;;;;1.02;1.02;;;24.00;67.40;;;;;;5002727;28;20049;-76
2023/06/24 09:00:03;;;;;;;1.95;0.90;;;23.90;67.30;;;;;;5003173;28;20057;-76
2023/06/24 09:02:29;;;;;;;1.00;1.00;;;24.00;67.30;;;;;;5000221;28;20042;-76
2023/06/24 09:04:55;;;;;;;1.00;1.00;;;24.00;67.30;;;;;;5004029;28;20034;-76
2023/06/24 09:07:26;;;;;;;1.02;1.02;;;24.00;67.30;;;;;;5003304;28;20034;-76
2023/06/24 09:09:52;;;;;;;1.23;1.13;;;24.00;67.20;;;;;;4986194;28;20058;-75
2023/06/24 09:12:17;;;;;;;1.02;1.02;;;24.00;67.30;;;;;;5008523;28;20138;-76
2023/06/24 09:14:48;;;;;;;1.17;1.17;;;24.00;67.10;;;;;;5006859;28;20033;-76
2023/06/24 09:17:13;;;;;;;1.30;1.30;;;24.00;67.10;;;;;;5005873;28;20037;-76
2023/06/24 09:19:39;;;;;;;1.15;1.15;;;24.00;67.10;;;;;;5002829;28;20063;-76
2023/06/24 09:22:06;;;;;;;0.93;0.93;;;24.10;67.10;;;;;;5004262;28;20056;-76
2023/06/24 09:24:35;;;;;;;1.05;1.05;;;24.10;67.00;;;;;;5007079;28;20582;-76
2023/06/24 09:27:01;;;;;;;1.00;1.00;;;24.10;67.80;;;;;;5008584;28;20080;-76
2023/06/24 09:29:27;;;;;;;1.30;1.20;;;24.10;67.00;;;;;;5002223;28;20503;-76
2023/06/24 09:31:53;;;;;;;1.25;1.25;;;24.10;66.90;;;;;;5005656;28;20042;-76
2023/06/24 09:34:19;;;;;;;1.10;1.10;;;24.10;66.90;;;;;;5006535;28;20045;-76
2023/06/24 09:36:45;;;;;;;1.05;1.05;;;24.10;67.70;;;;;;5006467;28;20729;-76
2023/06/24 09:39:11;;;;;;;1.33;1.33;;;24.10;66.80;;;;;;5006545;28;20349;-76
2023/06/24 09:41:39;;;;;;;1.10;1.10;;;24.10;66.70;;;;;;5004222;28;20041;-76
2023/06/24 09:44:11;;;;;;;1.00;1.00;;;24.20;66.80;;;;;;5004304;28;20526;-76
2023/06/24 09:46:37;;;;;;;1.20;1.10;;;24.20;66.80;;;;;;5002994;28;20064;-75
2023/06/24 09:49:05;;;;;;;1.30;1.20;;;24.10;66.70;;;;;;5007493;28;20049;-76
2023/06/24 09:51:33;;;;;;;1.30;1.30;;;24.20;66.70;;;;;;5022211;28;20053;-76
2023/06/24 09:53:59;;;;;;;1.10;1.10;;;24.10;66.70;;;;;;5006709;28;20053;-76
2023/06/24 09:56:24;;;;;;;1.30;1.30;;;24.20;66.70;;;;;;5008038;28;20476;-75
2023/06/24 09:58:50;;;;;;;1.15;1.15;;;24.20;67.50;;;;;;4987209;28;20384;-76
2023/06/24 10:01:16;;;;;;;1.02;1.02;;;24.20;66.70;;;;;;5003107;28;20076;-76
2023/06/24 10:03:41;;;;;;;1.20;1.20;;;24.20;66.70;;;;;;5004787;28;20489;-76
2023/06/24 10:06:07;;;;;;;1.08;1.08;;;24.20;66.60;;;;;;5008228;28;20049;-75
2023/06/24 10:08:33;;;;;;;1.25;1.25;;;24.30;66.60;;;;;;5005349;28;20508;-76
2023/06/24 10:11:02;;;;;;;1.10;1.10;;;24.30;66.50;;;;;;5001830;28;20046;-76
2023/06/24 10:13:27;;;;;;;1.20;1.20;;;24.20;66.40;;;;;;5002952;28;20073;-76
2023/06/24 10:15:54;;;;;;;1.00;1.00;;;24.30;66.90;;;;;;4987375;28;20069;-76
2023/06/24 10:18:36;;;;;;;1.20;1.20;;;24.30;66.50;;;;;;5007901;28;20531;-76
2023/06/24 10:21:03;;;;;;;1.15;1.15;;;24.30;66.40;;;;;;5005464;28;20068;-75
2023/06/24 10:23:40;;;;;;;1.17;1.15;;;24.30;66.40;;;;;;5003801;28;20041;-75
2023/06/24 10:26:10;;;;;;;1.30;1.30;;;24.30;66.40;;;;;;5015765;28;20092;-76
2023/06/24 10:29:01;;;;;;;1.10;1.10;;;24.30;66.30;;;;;;5002973;28;20050;-76
2023/06/24 10:31:44;;;;;;;0.80;0.80;;;24.30;66.30;;;;;;5004777;28;20050;-76
2023/06/24 10:34:31;;;;;;;1.30;1.30;;;24.30;66.40;;;;;;5003145;28;20059;-76
2023/06/24 10:37:00;;;;;;;1.20;1.20;;;24.30;66.40;;;;;;5002567;28;20043;-76
2023/06/24 10:39:44;;;;;;;1.02;1.02;;;24.30;66.40;;;;;;5021040;28;20041;-76
2023/06/24 10:42:46;;;;;;;1.20;1.20;;;24.30;66.30;;;;;;5007269;28;20045;-76
2023/06/24 10:45:13;;;;;;;0.90;0.90;;;24.30;66.30;;;;;;5004071;28;20042;-76
2023/06/24 10:47:49;;;;;;;1.40;1.02;;;24.30;66.30;;;;;;4999842;28;20121;-76
2023/06/24 10:50:19;;;;;;;1.08;1.08;;;24.30;66.30;;;;;;5005467;28;20540;-76
2023/06/24 10:52:46;;;;;;;0.80;0.80;;;24.30;66.20;;;;;;5000297;28;20050;-76
2023/06/24 10:55:15;;;;;;;0.90;0.90;;;24.30;66.20;;;;;;5005210;28;20496;-76
2023/06/24 10:57:41;;;;;;;1.10;1.10;;;24.40;66.30;;;;;;5003565;28;20042;-76
2023/06/24 11:00:07;;;;;;;1.00;1.00;;;24.40;66.20;;;;;;5006243;28;20128;-75
2023/06/24 11:02:33;;;;;;;0.95;0.95;;;24.40;66.20;;;;;;5003748;28;20034;-75
2023/06/24 11:04:59;;;;;;;1.10;1.10;;;24.40;66.10;;;;;;5016982;28;20057;-76
2023/06/24 11:07:27;;;;;;;1.00;1.00;;;24.40;66.20;;;;;;5001665;28;20038;-76
2023/06/24 11:09:54;;;;;;;1.10;1.10;;;24.40;66.10;;;;;;5002130;28;20129;-76
2023/06/24 11:12:24;;;;;;;1.10;1.10;;;24.40;66.30;;;;;;5018110;28;20606;-76
2023/06/24 11:14:50;;;;;;;1.00;1.00;;;24.40;66.20;;;;;;5004964;28;20503;-76
2023/06/24 11:17:15;;;;;;;1.20;1.10;;;24.40;66.10;;;;;;5005559;28;20049;-76
2023/06/24 11:19:43;;;;;;;0.90;0.90;;;24.40;66.20;;;;;;5004024;28;20403;-75
2023/06/24 11:22:09;;;;;;;1.17;1.17;;;24.40;66.10;;;;;;5004471;28;20030;-76
2023/06/24 11:24:35;;;;;;;1.27;1.17;;;24.40;66.10;;;;;;5004026;28;20052;-78
2023/06/24 11:27:01;;;;;;;1.05;1.05;;;24.40;66.10;;;;;;5004393;28;20069;-78
2023/06/24 11:29:30;;;;;;;1.08;1.08;;;24.50;66.20;;;;;;5003718;28;20046;-78
2023/06/24 11:31:55;;;;;;;1.10;1.10;;;24.50;66.20;;;;;;5003120;28;20515;-78
2023/06/24 11:34:21;;;;;;;1.00;1.00;;;24.50;66.10;;;;;;5005914;28;20345;-78
2023/06/24 11:36:47;;;;;;;1.20;1.20;;;24.50;66.20;;;;;;5002360;28;20042;-78
2023/06/24 11:39:26;;;;;;;1.00;1.00;;;24.40;66.10;;;;;;5005876;28;20100;-78
2023/06/24 11:41:52;;;;;;;0.77;0.77;;;24.50;66.20;;;;;;5002075;28;20061;-78
2023/06/24 11:44:19;;;;;;;1.17;1.17;;;24.50;66.10;;;;;;4998913;28;20033;-78
2023/06/24 11:46:45;;;;;;;1.08;1.08;;;24.50;66.10;;;;;;5003316;28;20123;-78
2023/06/24 11:49:10;;;;;;;1.00;1.00;;;24.50;66.10;;;;;;5004803;28;20034;-78
2023/06/24 11:51:36;;;;;;;0.88;0.88;;;24.50;66.10;;;;;;5004978;28;20495;-78
2023/06/24 11:54:05;;;;;;;0.93;0.93;;;24.50;66.00;;;;;;5020415;28;20046;-78
2023/06/24 11:56:38;;;;;;;1.00;1.00;;;24.50;66.00;;;;;;5002605;28;20050;-78
2023/06/24 11:59:06;;;;;;;0.90;0.90;;;24.50;66.00;;;;;;5001924;28;20336;-78
2023/06/24 12:01:39;;;;;;;1.13;1.13;;;24.50;65.90;;;;;;5017409;28;20065;-78
2023/06/24 12:04:13;;;;;;;1.00;1.00;;;24.50;65.90;;;;;;5000606;28;20431;-79
2023/06/24 12:06:41;;;;;;;0.90;0.90;;;24.50;66.00;;;;;;5003453;28;20504;-78
2023/06/24 12:09:07;;;;;;;1.13;1.13;;;24.50;65.90;;;;;;5020511;28;20515;-79
2023/06/24 12:11:32;;;;;;;1.02;1.02;;;24.60;66.10;;;;;;5016432;28;20141;-78
2023/06/24 12:13:58;;;;;;;0.90;0.90;;;24.50;66.00;;;;;;5001260;28;20578;-78
2023/06/24 12:16:24;;;;;;;1.02;1.02;;;24.50;66.10;;;;;;5004686;28;20069;-79
2023/06/24 12:18:50;;;;;;;1.33;1.23;;;24.50;66.70;;;;;;4986067;28;20385;-78
2023/06/24 12:21:15;;;;;;;1.00;1.00;;;24.50;65.90;;;;;;5021400;28;20106;-79
2023/06/24 12:23:41;;;;;;;1.20;1.20;;;24.60;66.00;;;;;;5000983;28;20107;-78
2023/06/24 12:26:06;;;;;;;1.75;0.90;;;24.60;66.00;;;;;;5002816;28;20029;-78
2023/06/24 12:28:32;;;;;;;1.00;1.00;;;24.60;66.10;;;;;;5002384;28;20041;-79
2023/06/24 12:30:58;;;;;;;1.88;1.00;;;24.60;65.90;;;;;;4992705;28;20042;-79
2023/06/24 12:33:23;;;;;;;0.82;0.82;;;24.60;65.90;;;;;;5004972;28;20022;-78
2023/06/24 12:35:49;;;;;;;0.88;0.88;;;24.60;65.90;;;;;;5018413;28;20049;-79
2023/06/24 12:38:15;;;;;;;1.25;1.25;;;24.60;65.80;;;;;;5003358;28;20125;-79
2023/06/24 12:40:41;;;;;;;1.25;1.25;;;24.60;65.70;;;;;;5001663;28;20034;-79
2023/06/24 12:43:07;;;;;;;1.02;1.02;;;24.60;65.70;;;;;;5006504;28;20048;-79
2023/06/24 12:45:32;;;;;;;1.17;1.17;;;24.70;65.70;;;;;;5026252;28;20060;-79